sensor_id;sensor_type;location;lat;lon;timestamp;temperature;humidity
10583;DHT22;33679;51.218;6.786;2022-08-01T00:00:33;24.00;99.90
10583;DHT22;33679;51.218;6.786;2022-08-01T00:03:00;24.00;99.90
10583;DHT22;33679;51.218;6.786;2022-08-01T00:05:28;24.00;99.90
10583;DHT22;33679;51.218;6.786;2022-08-01T00:07:59;24.00;99.90
10583;DHT22;33679;51.218;6.786;2022-08-01T00:10:26;24.00;99.90
10583;DHT22;33679;51.218;6.786;2022-08-01T00:12:56;24.00;99.90
10583;DHT22;33679;51.218;6.786;2022-08-01T00:15:24;23.90;99.90
10583;DHT22;33679;51.218;6.786;2022-08-01T00:17:51;23.80;99.90
10583;DHT22;33679;51.218;6.786;2022-08-01T00:20:18;23.80;99.90
10583;DHT22;33679;51.218;6.786;2022-08-01T00:22:45;23.80;99.90
10583;DHT22;33679;51.218;6.786;2022-08-01T00:25:12;23.80;99.90
10583;DHT22;33679;51.218;6.786;2022-08-01T00:27:41;23.80;99.90
10583;DHT22;33679;51.218;6.786;2022-08-01T00:30:08;23.80;99.90
10583;DHT22;33679;51.218;6.786;2022-08-01T00:32:36;23.80;99.90
10583;DHT22;33679;51.218;6.786;2022-08-01T00:35:03;23.80;99.90
10583;DHT22;33679;51.218;6.786;2022-08-01T00:37:30;23.80;99.90
10583;DHT22;33679;51.218;6.786;2022-08-01T00:39:57;23.70;99.90
10583;DHT22;33679;51.218;6.786;2022-08-01T00:42:26;23.60;99.90
10583;DHT22;33679;51.218;6.786;2022-08-01T00:44:53;23.60;99.90
10583;DHT22;33679;51.218;6.786;2022-08-01T00:47:22;23.50;99.90
10583;DHT22;33679;51.218;6.786;2022-08-01T00:49:51;23.50;99.90
10583;DHT22;33679;51.218;6.786;2022-08-01T00:52:18;23.60;99.90
10583;DHT22;33679;51.218;6.786;2022-08-01T00:54:45;23.90;99.90
10583;DHT22;33679;51.218;6.786;2022-08-01T00:57:12;24.10;99.90
10583;DHT22;33679;51.218;6.786;2022-08-01T00:59:39;24.10;99.90
10583;DHT22;33679;51.218;6.786;2022-08-01T01:02:06;24.30;99.90
10583;DHT22;33679;51.218;6.786;2022-08-01T01:04:33;24.40;99.90
10583;DHT22;33679;51.218;6.786;2022-08-01T01:07:04;24.40;99.90
10583;DHT22;33679;51.218;6.786;2022-08-01T01:09:34;24.60;99.90
10583;DHT22;33679;51.218;6.786;2022-08-01T01:12:08;24.60;99.90
10583;DHT22;33679;51.218;6.786;2022-08-01T01:14:39;24.60;99.90
10583;DHT22;33679;51.218;6.786;2022-08-01T01:17:12;24.60;99.90
10583;DHT22;33679;51.218;6.786;2022-08-01T01:19:41;24.60;99.90
10583;DHT22;33679;51.218;6.786;2022-08-01T01:22:18;24.50;99.90
10583;DHT22;33679;51.218;6.786;2022-08-01T01:24:51;24.50;99.90
10583;DHT22;33679;51.218;6.786;2022-08-01T01:27:24;24.70;99.90
10583;DHT22;33679;51.218;6.786;2022-08-01T01:29:56;24.70;99.90
10583;DHT22;33679;51.218;6.786;2022-08-01T01:32:25;24.80;99.90
10583;DHT22;33679;51.218;6.786;2022-08-01T01:34:55;24.90;99.90
10583;DHT22;33679;51.218;6.786;2022-08-01T01:37:23;24.90;99.90
10583;DHT22;33679;51.218;6.786;2022-08-01T01:39:51;24.70;99.90
10583;DHT22;33679;51.218;6.786;2022-08-01T01:42:19;24.80;99.90
10583;DHT22;33679;51.218;6.786;2022-08-01T01:44:47;24.80;99.90
10583;DHT22;33679;51.218;6.786;2022-08-01T01:47:16;24.90;99.90
10583;DHT22;33679;51.218;6.786;2022-08-01T01:49:44;24.70;99.90
10583;DHT22;33679;51.218;6.786;2022-08-01T01:52:12;24.70;99.90
10583;DHT22;33679;51.218;6.786;2022-08-01T01:57:41;24.60;99.90
10583;DHT22;33679;51.218;6.786;2022-08-01T02:00:09;24.70;99.90
10583;DHT22;33679;51.218;6.786;2022-08-01T02:02:38;24.70;99.90
10583;DHT22;33679;51.218;6.786;2022-08-01T02:05:09;24.70;99.90
10583;DHT22;33679;51.218;6.786;2022-08-01T02:07:36;24.70;99.90
10583;DHT22;33679;51.218;6.786;2022-08-01T02:10:05;24.70;99.90
10583;DHT22;33679;51.218;6.786;2022-08-01T02:12:35;24.70;99.90
10583;DHT22;33679;51.218;6.786;2022-08-01T02:15:04;24.90;99.90
10583;DHT22;33679;51.218;6.786;2022-08-01T02:17:31;24.80;99.90
10583;DHT22;33679;51.218;6.786;2022-08-01T02:20:03;24.80;99.90
10583;DHT22;33679;51.218;6.786;2022-08-01T02:22:30;24.80;99.90
10583;DHT22;33679;51.218;6.786;2022-08-01T02:24:59;24.90;99.90
10583;DHT22;33679;51.218;6.786;2022-08-01T02:27:28;24.90;99.90
10583;DHT22;33679;51.218;6.786;2022-08-01T02:29:58;25.00;99.90
10583;DHT22;33679;51.218;6.786;2022-08-01T02:32:30;24.90;99.90
10583;DHT22;33679;51.218;6.786;2022-08-01T02:34:57;24.80;99.90
10583;DHT22;33679;51.218;6.786;2022-08-01T02:37:27;24.70;99.90
10583;DHT22;33679;51.218;6.786;2022-08-01T02:39:55;24.70;99.90
10583;DHT22;33679;51.218;6.786;2022-08-01T02:42:24;24.70;99.90
10583;DHT22;33679;51.218;6.786;2022-08-01T02:44:51;24.80;99.90
10583;DHT22;33679;51.218;6.786;2022-08-01T02:47:19;24.90;99.90
10583;DHT22;33679;51.218;6.786;2022-08-01T02:49:47;24.70;99.90
10583;DHT22;33679;51.218;6.786;2022-08-01T02:52:17;24.70;99.90
10583;DHT22;33679;51.218;6.786;2022-08-01T02:54:47;24.70;99.90
10583;DHT22;33679;51.218;6.786;2022-08-01T02:57:15;24.70;99.90
10583;DHT22;33679;51.218;6.786;2022-08-01T02:59:42;24.60;99.90
10583;DHT22;33679;51.218;6.786;2022-08-01T03:02:12;24.70;99.90
10583;DHT22;33679;51.218;6.786;2022-08-01T03:04:40;24.50;99.90
10583;DHT22;33679;51.218;6.786;2022-08-01T03:07:09;24.50;99.90
10583;DHT22;33679;51.218;6.786;2022-08-01T03:09:37;24.50;99.90
10583;DHT22;33679;51.218;6.786;2022-08-01T03:12:07;24.50;99.90
10583;DHT22;33679;51.218;6.786;2022-08-01T03:14:36;24.70;99.90
10583;DHT22;33679;51.218;6.786;2022-08-01T03:17:05;24.70;99.90
10583;DHT22;33679;51.218;6.786;2022-08-01T03:19:33;24.70;99.90
10583;DHT22;33679;51.218;6.786;2022-08-01T03:22:00;24.50;99.90
10583;DHT22;33679;51.218;6.786;2022-08-01T03:24:28;24.60;99.90
10583;DHT22;33679;51.218;6.786;2022-08-01T03:26:55;24.60;99.90
10583;DHT22;33679;51.218;6.786;2022-08-01T03:29:25;24.60;99.90
10583;DHT22;33679;51.218;6.786;2022-08-01T03:31:53;24.60;99.90
10583;DHT22;33679;51.218;6.786;2022-08-01T03:34:21;24.60;99.90
10583;DHT22;33679;51.218;6.786;2022-08-01T03:36:49;24.60;99.90
10583;DHT22;33679;51.218;6.786;2022-08-01T03:39:16;24.60;99.90
10583;DHT22;33679;51.218;6.786;2022-08-01T03:41:46;24.60;99.90
10583;DHT22;33679;51.218;6.786;2022-08-01T03:44:16;24.70;99.90
10583;DHT22;33679;51.218;6.786;2022-08-01T03:46:46;24.70;99.90
10583;DHT22;33679;51.218;6.786;2022-08-01T03:49:14;24.70;99.90
10583;DHT22;33679;51.218;6.786;2022-08-01T03:51:44;24.60;99.90
10583;DHT22;33679;51.218;6.786;2022-08-01T03:54:13;24.40;99.90
10583;DHT22;33679;51.218;6.786;2022-08-01T03:56:41;24.40;99.90
10583;DHT22;33679;51.218;6.786;2022-08-01T03:59:09;24.20;99.90
10583;DHT22;33679;51.218;6.786;2022-08-01T04:01:36;24.10;99.90
10583;DHT22;33679;51.218;6.786;2022-08-01T04:04:04;24.00;99.90
10583;DHT22;33679;51.218;6.786;2022-08-01T04:06:31;23.80;99.90
10583;DHT22;33679;51.218;6.786;2022-08-01T04:08:59;23.70;99.90
10583;DHT22;33679;51.218;6.786;2022-08-01T04:11:26;23.60;99.90
10583;DHT22;33679;51.218;6.786;2022-08-01T04:13:54;23.90;99.90
10583;DHT22;33679;51.218;6.786;2022-08-01T04:16:22;24.10;99.90
10583;DHT22;33679;51.218;6.786;2022-08-01T04:18:50;24.30;99.90
10583;DHT22;33679;51.218;6.786;2022-08-01T04:21:20;24.30;99.90
10583;DHT22;33679;51.218;6.786;2022-08-01T04:23:49;24.40;99.90
10583;DHT22;33679;51.218;6.786;2022-08-01T04:26:18;24.40;99.90
10583;DHT22;33679;51.218;6.786;2022-08-01T04:28:46;24.40;99.90
10583;DHT22;33679;51.218;6.786;2022-08-01T04:31:15;24.40;99.90
10583;DHT22;33679;51.218;6.786;2022-08-01T04:33:43;24.50;99.90
10583;DHT22;33679;51.218;6.786;2022-08-01T04:36:12;24.60;99.90
10583;DHT22;33679;51.218;6.786;2022-08-01T04:38:42;24.60;99.90
10583;DHT22;33679;51.218;6.786;2022-08-01T04:41:12;24.60;99.90
10583;DHT22;33679;51.218;6.786;2022-08-01T04:43:39;24.50;99.90
10583;DHT22;33679;51.218;6.786;2022-08-01T04:46:06;24.50;99.90
10583;DHT22;33679;51.218;6.786;2022-08-01T04:48:34;24.50;99.90
10583;DHT22;33679;51.218;6.786;2022-08-01T04:51:02;24.60;99.90
10583;DHT22;33679;51.218;6.786;2022-08-01T04:53:30;24.70;99.90
10583;DHT22;33679;51.218;6.786;2022-08-01T04:55:59;24.60;99.90
10583;DHT22;33679;51.218;6.786;2022-08-01T04:58:28;24.50;99.90
10583;DHT22;33679;51.218;6.786;2022-08-01T05:00:55;24.60;99.90
10583;DHT22;33679;51.218;6.786;2022-08-01T05:03:22;24.70;99.90
10583;DHT22;33679;51.218;6.786;2022-08-01T05:05:49;24.70;99.90
10583;DHT22;33679;51.218;6.786;2022-08-01T05:08:16;24.70;99.90
10583;DHT22;33679;51.218;6.786;2022-08-01T05:10:43;24.60;99.90
10583;DHT22;33679;51.218;6.786;2022-08-01T05:13:11;24.60;99.90
10583;DHT22;33679;51.218;6.786;2022-08-01T05:15:38;24.50;99.90
10583;DHT22;33679;51.218;6.786;2022-08-01T05:18:05;24.50;99.90
10583;DHT22;33679;51.218;6.786;2022-08-01T05:20:36;24.50;99.90
10583;DHT22;33679;51.218;6.786;2022-08-01T05:23:03;24.50;99.90
10583;DHT22;33679;51.218;6.786;2022-08-01T05:25:30;24.50;99.90
10583;DHT22;33679;51.218;6.786;2022-08-01T05:27:58;24.60;99.90
10583;DHT22;33679;51.218;6.786;2022-08-01T05:30:27;24.60;99.90
10583;DHT22;33679;51.218;6.786;2022-08-01T05:32:54;24.80;99.90
10583;DHT22;33679;51.218;6.786;2022-08-01T05:35:21;24.50;99.90
10583;DHT22;33679;51.218;6.786;2022-08-01T05:37:48;24.70;99.90
10583;DHT22;33679;51.218;6.786;2022-08-01T05:40:15;24.70;99.90
10583;DHT22;33679;51.218;6.786;2022-08-01T05:42:42;24.60;99.90
10583;DHT22;33679;51.218;6.786;2022-08-01T05:45:09;24.50;99.90
10583;DHT22;33679;51.218;6.786;2022-08-01T05:47:38;24.30;99.90
10583;DHT22;33679;51.218;6.786;2022-08-01T05:50:05;24.30;99.90
10583;DHT22;33679;51.218;6.786;2022-08-01T05:52:36;24.50;99.90
10583;DHT22;33679;51.218;6.786;2022-08-01T05:55:04;24.60;99.90
10583;DHT22;33679;51.218;6.786;2022-08-01T05:57:32;24.50;99.90
10583;DHT22;33679;51.218;6.786;2022-08-01T05:59:59;24.60;99.90
10583;DHT22;33679;51.218;6.786;2022-08-01T06:02:26;24.70;99.90
10583;DHT22;33679;51.218;6.786;2022-08-01T06:04:54;24.70;99.90
10583;DHT22;33679;51.218;6.786;2022-08-01T06:07:22;24.70;99.90
10583;DHT22;33679;51.218;6.786;2022-08-01T06:09:49;24.60;99.90
10583;DHT22;33679;51.218;6.786;2022-08-01T06:12:16;24.40;99.90
10583;DHT22;33679;51.218;6.786;2022-08-01T06:14:43;24.40;99.90
10583;DHT22;33679;51.218;6.786;2022-08-01T06:17:10;24.40;99.90
10583;DHT22;33679;51.218;6.786;2022-08-01T06:19:37;24.30;99.90
10583;DHT22;33679;51.218;6.786;2022-08-01T06:22:05;24.30;99.90
10583;DHT22;33679;51.218;6.786;2022-08-01T06:24:32;24.30;99.90
10583;DHT22;33679;51.218;6.786;2022-08-01T06:26:59;24.30;99.90
10583;DHT22;33679;51.218;6.786;2022-08-01T06:29:26;24.30;99.90
10583;DHT22;33679;51.218;6.786;2022-08-01T06:31:53;24.30;99.90
10583;DHT22;33679;51.218;6.786;2022-08-01T06:34:20;24.40;99.90
10583;DHT22;33679;51.218;6.786;2022-08-01T06:36:48;24.50;99.90
10583;DHT22;33679;51.218;6.786;2022-08-01T06:39:16;24.60;99.90
10583;DHT22;33679;51.218;6.786;2022-08-01T06:41:44;24.50;99.90
10583;DHT22;33679;51.218;6.786;2022-08-01T06:44:12;24.60;99.90
10583;DHT22;33679;51.218;6.786;2022-08-01T06:46:39;24.50;99.90
10583;DHT22;33679;51.218;6.786;2022-08-01T06:49:06;24.30;99.90
10583;DHT22;33679;51.218;6.786;2022-08-01T06:51:33;24.30;99.90
10583;DHT22;33679;51.218;6.786;2022-08-01T06:54:03;24.40;99.90
10583;DHT22;33679;51.218;6.786;2022-08-01T06:56:31;24.40;99.90
10583;DHT22;33679;51.218;6.786;2022-08-01T06:59:00;24.40;99.90
10583;DHT22;33679;51.218;6.786;2022-08-01T07:01:27;24.40;99.90
10583;DHT22;33679;51.218;6.786;2022-08-01T07:03:54;24.50;99.90
10583;DHT22;33679;51.218;6.786;2022-08-01T07:06:22;24.60;99.90
10583;DHT22;33679;51.218;6.786;2022-08-01T07:08:49;24.60;99.90
10583;DHT22;33679;51.218;6.786;2022-08-01T07:11:16;24.60;99.90
10583;DHT22;33679;51.218;6.786;2022-08-01T07:13:45;24.80;99.90
10583;DHT22;33679;51.218;6.786;2022-08-01T07:16:12;25.00;99.90
10583;DHT22;33679;51.218;6.786;2022-08-01T07:18:39;25.10;99.90
10583;DHT22;33679;51.218;6.786;2022-08-01T07:21:06;25.20;99.90
10583;DHT22;33679;51.218;6.786;2022-08-01T07:23:33;25.30;99.90
10583;DHT22;33679;51.218;6.786;2022-08-01T07:26:00;25.30;99.90
10583;DHT22;33679;51.218;6.786;2022-08-01T07:28:30;25.20;99.90
10583;DHT22;33679;51.218;6.786;2022-08-01T07:30:59;25.40;99.90
10583;DHT22;33679;51.218;6.786;2022-08-01T07:33:26;25.40;99.90
10583;DHT22;33679;51.218;6.786;2022-08-01T07:35:53;25.40;99.90
10583;DHT22;33679;51.218;6.786;2022-08-01T07:38:21;25.50;99.90
10583;DHT22;33679;51.218;6.786;2022-08-01T07:40:48;25.50;99.90
10583;DHT22;33679;51.218;6.786;2022-08-01T07:43:15;25.60;99.90
10583;DHT22;33679;51.218;6.786;2022-08-01T07:45:42;25.60;99.90
10583;DHT22;33679;51.218;6.786;2022-08-01T07:48:11;25.80;99.90
10583;DHT22;33679;51.218;6.786;2022-08-01T07:50:38;25.80;99.90
10583;DHT22;33679;51.218;6.786;2022-08-01T07:53:05;25.80;99.90
10583;DHT22;33679;51.218;6.786;2022-08-01T07:55:32;26.00;99.90
10583;DHT22;33679;51.218;6.786;2022-08-01T07:57:59;25.90;99.90
10583;DHT22;33679;51.218;6.786;2022-08-01T08:00:27;26.00;99.90
10583;DHT22;33679;51.218;6.786;2022-08-01T08:02:54;26.00;99.90
10583;DHT22;33679;51.218;6.786;2022-08-01T08:05:25;25.80;99.90
10583;DHT22;33679;51.218;6.786;2022-08-01T08:07:52;25.80;99.90
10583;DHT22;33679;51.218;6.786;2022-08-01T08:10:20;26.00;99.90
10583;DHT22;33679;51.218;6.786;2022-08-01T08:12:47;26.00;99.90
10583;DHT22;33679;51.218;6.786;2022-08-01T08:15:15;25.90;99.90
10583;DHT22;33679;51.218;6.786;2022-08-01T08:17:43;25.90;99.90
10583;DHT22;33679;51.218;6.786;2022-08-01T08:20:10;25.90;99.90
10583;DHT22;33679;51.218;6.786;2022-08-01T08:22:39;26.00;99.90
10583;DHT22;33679;51.218;6.786;2022-08-01T08:25:06;25.90;99.90
10583;DHT22;33679;51.218;6.786;2022-08-01T08:27:36;25.90;99.90
10583;DHT22;33679;51.218;6.786;2022-08-01T08:30:06;25.90;99.90
10583;DHT22;33679;51.218;6.786;2022-08-01T08:32:34;26.00;99.90
10583;DHT22;33679;51.218;6.786;2022-08-01T08:35:01;26.00;99.90
10583;DHT22;33679;51.218;6.786;2022-08-01T08:37:28;26.00;99.90
10583;DHT22;33679;51.218;6.786;2022-08-01T08:39:57;26.00;99.90
10583;DHT22;33679;51.218;6.786;2022-08-01T08:42:24;26.00;99.90
10583;DHT22;33679;51.218;6.786;2022-08-01T08:44:51;26.00;99.90
10583;DHT22;33679;51.218;6.786;2022-08-01T08:47:20;26.10;99.90
10583;DHT22;33679;51.218;6.786;2022-08-01T08:49:48;26.20;99.90
10583;DHT22;33679;51.218;6.786;2022-08-01T08:52:15;26.30;99.90
10583;DHT22;33679;51.218;6.786;2022-08-01T08:54:45;26.50;99.90
10583;DHT22;33679;51.218;6.786;2022-08-01T08:57:14;26.30;99.90
10583;DHT22;33679;51.218;6.786;2022-08-01T08:59:42;26.30;99.90
10583;DHT22;33679;51.218;6.786;2022-08-01T09:02:12;26.50;99.90
10583;DHT22;33679;51.218;6.786;2022-08-01T09:04:39;26.60;99.90
10583;DHT22;33679;51.218;6.786;2022-08-01T09:07:07;26.60;99.90
10583;DHT22;33679;51.218;6.786;2022-08-01T09:09:35;26.70;99.90
10583;DHT22;33679;51.218;6.786;2022-08-01T09:12:03;26.60;99.90
10583;DHT22;33679;51.218;6.786;2022-08-01T09:14:35;26.70;99.90
10583;DHT22;33679;51.218;6.786;2022-08-01T09:17:13;26.70;99.90
10583;DHT22;33679;51.218;6.786;2022-08-01T09:19:42;26.80;99.90
10583;DHT22;33679;51.218;6.786;2022-08-01T09:22:10;26.80;99.90
10583;DHT22;33679;51.218;6.786;2022-08-01T09:24:38;26.90;99.90
10583;DHT22;33679;51.218;6.786;2022-08-01T09:27:15;26.90;99.90
10583;DHT22;33679;51.218;6.786;2022-08-01T09:29:44;27.00;99.90
10583;DHT22;33679;51.218;6.786;2022-08-01T09:32:12;27.00;99.90
10583;DHT22;33679;51.218;6.786;2022-08-01T09:34:38;27.00;99.90
10583;DHT22;33679;51.218;6.786;2022-08-01T09:37:05;27.00;99.90
10583;DHT22;33679;51.218;6.786;2022-08-01T09:39:35;27.30;99.90
10583;DHT22;33679;51.218;6.786;2022-08-01T09:42:18;27.30;99.90
10583;DHT22;33679;51.218;6.786;2022-08-01T09:44:47;27.30;99.90
10583;DHT22;33679;51.218;6.786;2022-08-01T09:47:14;27.20;99.90
10583;DHT22;33679;51.218;6.786;2022-08-01T09:49:42;27.20;99.90
10583;DHT22;33679;51.218;6.786;2022-08-01T09:52:12;27.20;99.90
10583;DHT22;33679;51.218;6.786;2022-08-01T09:54:39;27.10;99.90
10583;DHT22;33679;51.218;6.786;2022-08-01T09:57:11;27.10;99.90
10583;DHT22;33679;51.218;6.786;2022-08-01T09:59:40;27.20;99.90
10583;DHT22;33679;51.218;6.786;2022-08-01T10:02:10;27.10;99.90
10583;DHT22;33679;51.218;6.786;2022-08-01T10:04:47;27.10;99.90
10583;DHT22;33679;51.218;6.786;2022-08-01T10:07:15;27.10;99.90
10583;DHT22;33679;51.218;6.786;2022-08-01T10:09:43;27.30;99.90
10583;DHT22;33679;51.218;6.786;2022-08-01T10:12:12;27.30;99.90
10583;DHT22;33679;51.218;6.786;2022-08-01T10:14:39;27.10;99.90
10583;DHT22;33679;51.218;6.786;2022-08-01T10:17:07;27.10;99.90
10583;DHT22;33679;51.218;6.786;2022-08-01T10:19:36;27.00;99.90
10583;DHT22;33679;51.218;6.786;2022-08-01T10:22:08;27.00;99.90
10583;DHT22;33679;51.218;6.786;2022-08-01T10:24:36;26.90;99.90
10583;DHT22;33679;51.218;6.786;2022-08-01T10:27:04;27.00;99.90
10583;DHT22;33679;51.218;6.786;2022-08-01T10:29:32;27.00;99.90
10583;DHT22;33679;51.218;6.786;2022-08-01T10:32:01;26.90;99.90
10583;DHT22;33679;51.218;6.786;2022-08-01T10:34:29;27.00;99.90
10583;DHT22;33679;51.218;6.786;2022-08-01T10:36:58;27.00;99.90
10583;DHT22;33679;51.218;6.786;2022-08-01T10:39:26;27.00;99.90
10583;DHT22;33679;51.218;6.786;2022-08-01T10:41:55;27.20;99.90
10583;DHT22;33679;51.218;6.786;2022-08-01T10:44:22;27.30;99.90
10583;DHT22;33679;51.218;6.786;2022-08-01T10:46:50;27.30;99.90
10583;DHT22;33679;51.218;6.786;2022-08-01T10:49:19;27.40;99.90
10583;DHT22;33679;51.218;6.786;2022-08-01T10:51:50;27.40;99.90
10583;DHT22;33679;51.218;6.786;2022-08-01T10:54:19;27.40;99.90
10583;DHT22;33679;51.218;6.786;2022-08-01T10:56:49;27.50;99.90
10583;DHT22;33679;51.218;6.786;2022-08-01T10:59:21;27.50;99.90
10583;DHT22;33679;51.218;6.786;2022-08-01T11:01:55;27.50;99.90
10583;DHT22;33679;51.218;6.786;2022-08-01T11:04:24;27.40;99.90
10583;DHT22;33679;51.218;6.786;2022-08-01T11:07:02;27.40;99.90
10583;DHT22;33679;51.218;6.786;2022-08-01T11:09:37;27.50;99.90
10583;DHT22;33679;51.218;6.786;2022-08-01T11:12:06;27.50;99.90
10583;DHT22;33679;51.218;6.786;2022-08-01T11:14:34;27.30;99.90
10583;DHT22;33679;51.218;6.786;2022-08-01T11:17:30;27.50;99.90
10583;DHT22;33679;51.218;6.786;2022-08-01T11:20:08;27.60;99.90
10583;DHT22;33679;51.218;6.786;2022-08-01T11:25:24;27.60;99.90
10583;DHT22;33679;51.218;6.786;2022-08-01T11:27:59;27.50;99.90
10583;DHT22;33679;51.218;6.786;2022-08-01T11:30:44;27.50;99.90
10583;DHT22;33679;51.218;6.786;2022-08-01T11:33:12;27.50;99.90
10583;DHT22;33679;51.218;6.786;2022-08-01T11:36:15;27.40;99.90
10583;DHT22;33679;51.218;6.786;2022-08-01T11:38:36;27.40;99.90
10583;DHT22;33679;51.218;6.786;2022-08-01T11:41:12;27.40;99.90
10583;DHT22;33679;51.218;6.786;2022-08-01T11:43:54;27.30;99.90
10583;DHT22;33679;51.218;6.786;2022-08-01T11:51:57;27.60;99.90
10583;DHT22;33679;51.218;6.786;2022-08-01T11:54:26;27.60;99.90
10583;DHT22;33679;51.218;6.786;2022-08-01T11:56:56;27.60;99.90
10583;DHT22;33679;51.218;6.786;2022-08-01T11:59:23;27.60;99.90
10583;DHT22;33679;51.218;6.786;2022-08-01T12:01:50;27.60;99.90
10583;DHT22;33679;51.218;6.786;2022-08-01T12:04:18;27.90;99.90
10583;DHT22;33679;51.218;6.786;2022-08-01T12:06:45;28.00;99.90
10583;DHT22;33679;51.218;6.786;2022-08-01T12:09:19;28.30;99.90
10583;DHT22;33679;51.218;6.786;2022-08-01T12:11:51;28.30;99.90
10583;DHT22;33679;51.218;6.786;2022-08-01T12:14:20;28.40;99.90
10583;DHT22;33679;51.218;6.786;2022-08-01T12:16:51;28.30;99.90
10583;DHT22;33679;51.218;6.786;2022-08-01T12:19:26;28.10;99.90
10583;DHT22;33679;51.218;6.786;2022-08-01T12:22:10;28.10;99.90
10583;DHT22;33679;51.218;6.786;2022-08-01T12:24:38;28.10;99.90
10583;DHT22;33679;51.218;6.786;2022-08-01T12:27:06;28.10;99.90
10583;DHT22;33679;51.218;6.786;2022-08-01T12:29:36;28.00;99.90
10583;DHT22;33679;51.218;6.786;2022-08-01T12:32:04;27.90;99.90
10583;DHT22;33679;51.218;6.786;2022-08-01T12:34:31;27.90;99.90
10583;DHT22;33679;51.218;6.786;2022-08-01T12:37:00;27.90;99.90
10583;DHT22;33679;51.218;6.786;2022-08-01T12:39:29;28.00;99.90
10583;DHT22;33679;51.218;6.786;2022-08-01T12:41:56;28.30;99.90
10583;DHT22;33679;51.218;6.786;2022-08-01T12:44:24;28.20;99.90
10583;DHT22;33679;51.218;6.786;2022-08-01T12:46:55;28.10;99.90
10583;DHT22;33679;51.218;6.786;2022-08-01T12:49:23;28.20;99.90
10583;DHT22;33679;51.218;6.786;2022-08-01T12:51:50;28.10;99.90
10583;DHT22;33679;51.218;6.786;2022-08-01T12:54:17;28.20;99.90
10583;DHT22;33679;51.218;6.786;2022-08-01T12:56:44;28.20;99.90
10583;DHT22;33679;51.218;6.786;2022-08-01T12:59:22;28.20;99.90
10583;DHT22;33679;51.218;6.786;2022-08-01T13:01:51;28.00;99.90
10583;DHT22;33679;51.218;6.786;2022-08-01T13:04:19;28.00;99.90
10583;DHT22;33679;51.218;6.786;2022-08-01T13:06:47;28.20;99.90
10583;DHT22;33679;51.218;6.786;2022-08-01T13:09:16;28.20;99.90
10583;DHT22;33679;51.218;6.786;2022-08-01T13:11:43;28.30;99.90
10583;DHT22;33679;51.218;6.786;2022-08-01T13:14:26;28.30;99.90
10583;DHT22;33679;51.218;6.786;2022-08-01T13:16:59;28.30;99.90
10583;DHT22;33679;51.218;6.786;2022-08-01T13:22:10;28.60;99.90
10583;DHT22;33679;51.218;6.786;2022-08-01T13:24:39;28.40;99.90
10583;DHT22;33679;51.218;6.786;2022-08-01T13:27:06;28.40;99.90
10583;DHT22;33679;51.218;6.786;2022-08-01T13:29:34;28.40;99.90
10583;DHT22;33679;51.218;6.786;2022-08-01T13:32:11;28.60;99.90
10583;DHT22;33679;51.218;6.786;2022-08-01T13:34:41;28.50;99.90
10583;DHT22;33679;51.218;6.786;2022-08-01T13:37:10;28.40;99.90
10583;DHT22;33679;51.218;6.786;2022-08-01T13:39:37;28.40;99.90
10583;DHT22;33679;51.218;6.786;2022-08-01T13:42:07;28.40;99.90
10583;DHT22;33679;51.218;6.786;2022-08-01T13:44:34;28.30;99.90
10583;DHT22;33679;51.218;6.786;2022-08-01T13:47:01;28.50;99.90
10583;DHT22;33679;51.218;6.786;2022-08-01T13:49:29;28.40;99.90
10583;DHT22;33679;51.218;6.786;2022-08-01T13:51:59;28.30;99.90
10583;DHT22;33679;51.218;6.786;2022-08-01T13:54:27;28.40;99.90
10583;DHT22;33679;51.218;6.786;2022-08-01T13:56:57;28.40;99.90
10583;DHT22;33679;51.218;6.786;2022-08-01T13:59:24;28.30;99.90
10583;DHT22;33679;51.218;6.786;2022-08-01T14:01:51;28.20;99.90
10583;DHT22;33679;51.218;6.786;2022-08-01T14:04:20;28.20;99.90
10583;DHT22;33679;51.218;6.786;2022-08-01T14:06:47;28.30;99.90
10583;DHT22;33679;51.218;6.786;2022-08-01T14:09:14;28.30;99.90
10583;DHT22;33679;51.218;6.786;2022-08-01T14:11:44;28.30;99.90
10583;DHT22;33679;51.218;6.786;2022-08-01T14:14:11;28.50;99.90
10583;DHT22;33679;51.218;6.786;2022-08-01T14:16:38;28.40;99.90
10583;DHT22;33679;51.218;6.786;2022-08-01T14:19:05;28.50;99.90
10583;DHT22;33679;51.218;6.786;2022-08-01T14:21:32;28.50;99.90
10583;DHT22;33679;51.218;6.786;2022-08-01T14:24:00;28.50;99.90
10583;DHT22;33679;51.218;6.786;2022-08-01T14:26:27;28.40;99.90
10583;DHT22;33679;51.218;6.786;2022-08-01T14:28:55;28.70;99.90
10583;DHT22;33679;51.218;6.786;2022-08-01T14:31:22;28.70;99.90
10583;DHT22;33679;51.218;6.786;2022-08-01T14:33:49;28.60;99.90
10583;DHT22;33679;51.218;6.786;2022-08-01T14:36:17;28.60;99.90
10583;DHT22;33679;51.218;6.786;2022-08-01T14:38:51;28.70;99.90
10583;DHT22;33679;51.218;6.786;2022-08-01T14:41:18;28.60;99.90
10583;DHT22;33679;51.218;6.786;2022-08-01T14:43:45;28.50;99.90
10583;DHT22;33679;51.218;6.786;2022-08-01T14:46:14;28.40;99.90
10583;DHT22;33679;51.218;6.786;2022-08-01T14:48:40;28.40;99.90
10583;DHT22;33679;51.218;6.786;2022-08-01T14:51:07;28.40;99.90
10583;DHT22;33679;51.218;6.786;2022-08-01T14:53:35;28.50;99.90
10583;DHT22;33679;51.218;6.786;2022-08-01T14:56:03;28.40;99.90
10583;DHT22;33679;51.218;6.786;2022-08-01T14:58:30;28.30;99.90
10583;DHT22;33679;51.218;6.786;2022-08-01T15:00:57;28.50;99.90
10583;DHT22;33679;51.218;6.786;2022-08-01T15:03:26;28.80;99.90
10583;DHT22;33679;51.218;6.786;2022-08-01T15:05:53;28.70;99.90
10583;DHT22;33679;51.218;6.786;2022-08-01T15:08:22;28.70;99.90
10583;DHT22;33679;51.218;6.786;2022-08-01T15:10:50;28.50;99.90
10583;DHT22;33679;51.218;6.786;2022-08-01T15:13:17;28.60;99.90
10583;DHT22;33679;51.218;6.786;2022-08-01T15:15:44;28.60;99.90
10583;DHT22;33679;51.218;6.786;2022-08-01T15:18:11;28.70;99.90
10583;DHT22;33679;51.218;6.786;2022-08-01T15:20:39;28.50;99.90
10583;DHT22;33679;51.218;6.786;2022-08-01T15:23:07;28.50;99.90
10583;DHT22;33679;51.218;6.786;2022-08-01T15:25:35;28.30;99.90
10583;DHT22;33679;51.218;6.786;2022-08-01T15:28:04;28.40;99.90
10583;DHT22;33679;51.218;6.786;2022-08-01T15:30:31;28.50;99.90
10583;DHT22;33679;51.218;6.786;2022-08-01T15:32:58;28.40;99.90
10583;DHT22;33679;51.218;6.786;2022-08-01T15:35:25;28.30;99.90
10583;DHT22;33679;51.218;6.786;2022-08-01T15:37:54;28.30;99.90
10583;DHT22;33679;51.218;6.786;2022-08-01T15:40:21;28.40;99.90
10583;DHT22;33679;51.218;6.786;2022-08-01T15:42:48;28.30;99.90
10583;DHT22;33679;51.218;6.786;2022-08-01T15:45:15;28.00;99.90
10583;DHT22;33679;51.218;6.786;2022-08-01T15:47:44;27.90;99.90
10583;DHT22;33679;51.218;6.786;2022-08-01T15:50:11;27.80;99.90
10583;DHT22;33679;51.218;6.786;2022-08-01T15:52:38;27.70;99.90